sensor_id;sensor_type;location;lat;lon;timestamp;P1;durP1;ratioP1;P2;durP2;ratioP2
69034;SDS011;56091;55.756;37.412;2022-09-09T00:03:44;6.70;;;2.63;;
69034;SDS011;56091;55.756;37.412;2022-09-09T00:09:06;6.93;;;2.50;;
69034;SDS011;56091;55.756;37.412;2022-09-09T00:14:23;6.97;;;2.37;;
69034;SDS011;56091;55.756;37.412;2022-09-09T00:19:44;6.70;;;2.47;;
69034;SDS011;56091;55.756;37.412;2022-09-09T00:25:01;6.37;;;2.37;;
69034;SDS011;56091;55.756;37.412;2022-09-09T00:30:22;6.00;;;2.40;;
69034;SDS011;56091;55.756;37.412;2022-09-09T00:35:34;7.53;;;2.70;;
69034;SDS011;56091;55.756;37.412;2022-09-09T00:40:46;5.68;;;2.40;;
69034;SDS011;56091;55.756;37.412;2022-09-09T00:56:42;5.97;;;2.43;;
69034;SDS011;56091;55.756;37.412;2022-09-09T01:01:50;7.30;;;2.70;;
69034;SDS011;56091;55.756;37.412;2022-09-09T01:06:55;6.30;;;2.27;;
69034;SDS011;56091;55.756;37.412;2022-09-09T01:12:14;6.13;;;2.78;;
69034;SDS011;56091;55.756;37.412;2022-09-09T01:17:34;6.30;;;2.33;;
69034;SDS011;56091;55.756;37.412;2022-09-09T01:22:52;7.50;;;2.40;;
69034;SDS011;56091;55.756;37.412;2022-09-09T01:28:03;6.17;;;2.40;;
69034;SDS011;56091;55.756;37.412;2022-09-09T01:33:15;7.10;;;2.60;;
69034;SDS011;56091;55.756;37.412;2022-09-09T01:38:21;8.77;;;2.80;;
69034;SDS011;56091;55.756;37.412;2022-09-09T01:43:26;10.18;;;3.10;;
69034;SDS011;56091;55.756;37.412;2022-09-09T01:48:30;10.13;;;3.00;;
69034;SDS011;56091;55.756;37.412;2022-09-09T01:53:42;9.82;;;3.25;;
69034;SDS011;56091;55.756;37.412;2022-09-09T01:58:57;6.60;;;2.70;;
69034;SDS011;56091;55.756;37.412;2022-09-09T02:09:23;7.43;;;2.97;;
69034;SDS011;56091;55.756;37.412;2022-09-09T02:14:30;8.63;;;2.78;;
69034;SDS011;56091;55.756;37.412;2022-09-09T02:19:37;7.70;;;2.90;;
69034;SDS011;56091;55.756;37.412;2022-09-09T02:24:56;8.27;;;2.97;;
69034;SDS011;56091;55.756;37.412;2022-09-09T02:30:02;8.53;;;2.90;;
69034;SDS011;56091;55.756;37.412;2022-09-09T02:35:14;8.10;;;2.72;;
69034;SDS011;56091;55.756;37.412;2022-09-09T02:40:18;7.70;;;2.43;;
69034;SDS011;56091;55.756;37.412;2022-09-09T02:45:38;6.25;;;2.30;;
69034;SDS011;56091;55.756;37.412;2022-09-09T02:56:19;7.63;;;2.42;;
69034;SDS011;56091;55.756;37.412;2022-09-09T03:01:23;5.97;;;2.40;;
69034;SDS011;56091;55.756;37.412;2022-09-09T03:06:24;5.80;;;2.55;;
69034;SDS011;56091;55.756;37.412;2022-09-09T03:11:34;6.00;;;2.17;;
69034;SDS011;56091;55.756;37.412;2022-09-09T03:16:36;9.43;;;2.55;;
69034;SDS011;56091;55.756;37.412;2022-09-09T03:21:39;6.47;;;2.87;;
69034;SDS011;56091;55.756;37.412;2022-09-09T03:26:41;6.85;;;2.90;;
69034;SDS011;56091;55.756;37.412;2022-09-09T03:31:47;5.90;;;2.40;;
69034;SDS011;56091;55.756;37.412;2022-09-09T03:36:48;5.97;;;2.55;;
69034;SDS011;56091;55.756;37.412;2022-09-09T03:41:50;9.67;;;2.77;;
69034;SDS011;56091;55.756;37.412;2022-09-09T03:46:51;6.53;;;2.60;;
69034;SDS011;56091;55.756;37.412;2022-09-09T03:51:53;6.33;;;2.57;;
69034;SDS011;56091;55.756;37.412;2022-09-09T03:56:54;6.85;;;2.63;;
69034;SDS011;56091;55.756;37.412;2022-09-09T04:01:59;6.03;;;2.65;;
69034;SDS011;56091;55.756;37.412;2022-09-09T04:07:01;6.38;;;2.58;;
69034;SDS011;56091;55.756;37.412;2022-09-09T04:12:02;7.40;;;2.70;;
69034;SDS011;56091;55.756;37.412;2022-09-09T04:17:04;5.95;;;2.60;;
69034;SDS011;56091;55.756;37.412;2022-09-09T04:22:07;7.70;;;3.00;;
69034;SDS011;56091;55.756;37.412;2022-09-09T04:27:07;7.18;;;2.78;;
69034;SDS011;56091;55.756;37.412;2022-09-09T04:32:10;7.22;;;3.10;;
69034;SDS011;56091;55.756;37.412;2022-09-09T04:37:13;7.70;;;2.85;;
69034;SDS011;56091;55.756;37.412;2022-09-09T04:42:14;8.65;;;3.60;;
69034;SDS011;56091;55.756;37.412;2022-09-09T04:47:17;7.05;;;3.55;;
69034;SDS011;56091;55.756;37.412;2022-09-09T04:52:18;8.87;;;3.53;;
69034;SDS011;56091;55.756;37.412;2022-09-09T04:57:19;6.35;;;3.30;;
69034;SDS011;56091;55.756;37.412;2022-09-09T05:02:21;7.03;;;3.37;;
69034;SDS011;56091;55.756;37.412;2022-09-09T05:07:22;8.40;;;3.00;;
69034;SDS011;56091;55.756;37.412;2022-09-09T05:12:23;8.07;;;3.23;;
69034;SDS011;56091;55.756;37.412;2022-09-09T05:17:26;5.75;;;2.78;;
69034;SDS011;56091;55.756;37.412;2022-09-09T05:22:28;17.27;;;3.83;;
69034;SDS011;56091;55.756;37.412;2022-09-09T05:27:28;6.53;;;2.30;;
69034;SDS011;56091;55.756;37.412;2022-09-09T05:32:33;7.17;;;2.77;;
69034;SDS011;56091;55.756;37.412;2022-09-09T05:37:35;6.35;;;2.42;;
69034;SDS011;56091;55.756;37.412;2022-09-09T05:42:36;8.30;;;2.90;;
69034;SDS011;56091;55.756;37.412;2022-09-09T05:47:38;6.70;;;2.72;;
69034;SDS011;56091;55.756;37.412;2022-09-09T05:52:42;6.47;;;2.53;;
69034;SDS011;56091;55.756;37.412;2022-09-09T05:57:48;7.82;;;2.80;;
69034;SDS011;56091;55.756;37.412;2022-09-09T06:02:52;8.47;;;2.80;;
69034;SDS011;56091;55.756;37.412;2022-09-09T06:07:55;9.98;;;2.83;;
69034;SDS011;56091;55.756;37.412;2022-09-09T06:12:57;8.90;;;3.20;;
69034;SDS011;56091;55.756;37.412;2022-09-09T06:18:02;7.70;;;2.40;;
69034;SDS011;56091;55.756;37.412;2022-09-09T06:23:03;8.80;;;2.70;;
69034;SDS011;56091;55.756;37.412;2022-09-09T06:28:05;6.68;;;2.50;;
69034;SDS011;56091;55.756;37.412;2022-09-09T06:33:06;5.77;;;2.00;;
69034;SDS011;56091;55.756;37.412;2022-09-09T06:38:09;5.72;;;2.10;;
69034;SDS011;56091;55.756;37.412;2022-09-09T06:43:11;8.17;;;1.90;;
69034;SDS011;56091;55.756;37.412;2022-09-09T06:48:20;5.45;;;1.60;;
69034;SDS011;56091;55.756;37.412;2022-09-09T06:53:21;5.03;;;1.70;;
69034;SDS011;56091;55.756;37.412;2022-09-09T06:58:22;4.13;;;1.60;;
69034;SDS011;56091;55.756;37.412;2022-09-09T07:03:24;5.17;;;1.90;;
69034;SDS011;56091;55.756;37.412;2022-09-09T07:08:26;5.82;;;1.60;;
69034;SDS011;56091;55.756;37.412;2022-09-09T07:13:29;4.30;;;1.70;;
69034;SDS011;56091;55.756;37.412;2022-09-09T07:18:31;4.80;;;1.30;;
69034;SDS011;56091;55.756;37.412;2022-09-09T07:23:35;4.03;;;1.30;;
69034;SDS011;56091;55.756;37.412;2022-09-09T07:28:38;4.50;;;1.40;;
69034;SDS011;56091;55.756;37.412;2022-09-09T07:33:39;4.77;;;1.20;;
69034;SDS011;56091;55.756;37.412;2022-09-09T07:38:44;2.45;;;1.15;;
69034;SDS011;56091;55.756;37.412;2022-09-09T07:43:48;4.27;;;1.20;;
69034;SDS011;56091;55.756;37.412;2022-09-09T07:48:51;5.43;;;1.50;;
69034;SDS011;56091;55.756;37.412;2022-09-09T07:54:01;3.80;;;1.40;;
69034;SDS011;56091;55.756;37.412;2022-09-09T07:59:10;3.60;;;1.20;;
69034;SDS011;56091;55.756;37.412;2022-09-09T08:04:14;3.87;;;1.50;;
69034;SDS011;56091;55.756;37.412;2022-09-09T08:09:21;4.47;;;1.40;;
69034;SDS011;56091;55.756;37.412;2022-09-09T08:14:26;3.20;;;1.30;;
69034;SDS011;56091;55.756;37.412;2022-09-09T08:19:29;3.75;;;1.30;;
69034;SDS011;56091;55.756;37.412;2022-09-09T08:24:33;4.40;;;1.40;;
69034;SDS011;56091;55.756;37.412;2022-09-09T08:29:34;4.78;;;1.40;;
69034;SDS011;56091;55.756;37.412;2022-09-09T08:34:36;3.93;;;1.33;;
69034;SDS011;56091;55.756;37.412;2022-09-09T08:39:42;3.72;;;1.30;;
69034;SDS011;56091;55.756;37.412;2022-09-09T08:55:37;5.37;;;1.40;;
69034;SDS011;56091;55.756;37.412;2022-09-09T09:11:38;3.05;;;1.30;;
69034;SDS011;56091;55.756;37.412;2022-09-09T09:17:05;4.57;;;1.50;;
69034;SDS011;56091;55.756;37.412;2022-09-09T09:27:36;4.27;;;1.60;;
69034;SDS011;56091;55.756;37.412;2022-09-09T09:32:56;4.75;;;1.75;;
69034;SDS011;56091;55.756;37.412;2022-09-09T09:38:24;5.40;;;1.73;;
69034;SDS011;56091;55.756;37.412;2022-09-09T09:43:34;4.05;;;1.40;;
69034;SDS011;56091;55.756;37.412;2022-09-09T09:48:40;3.97;;;1.60;;
69034;SDS011;56091;55.756;37.412;2022-09-09T09:53:41;8.52;;;1.33;;
69034;SDS011;56091;55.756;37.412;2022-09-09T10:03:51;4.65;;;1.50;;
69034;SDS011;56091;55.756;37.412;2022-09-09T10:08:53;6.23;;;1.60;;
69034;SDS011;56091;55.756;37.412;2022-09-09T10:40:18;4.80;;;1.67;;
69034;SDS011;56091;55.756;37.412;2022-09-09T10:50:55;4.00;;;1.58;;
69034;SDS011;56091;55.756;37.412;2022-09-09T10:56:07;4.63;;;1.50;;
69034;SDS011;56091;55.756;37.412;2022-09-09T11:01:21;4.85;;;1.85;;
69034;SDS011;56091;55.756;37.412;2022-09-09T11:06:28;5.97;;;1.60;;
69034;SDS011;56091;55.756;37.412;2022-09-09T11:11:42;5.05;;;1.50;;
69034;SDS011;56091;55.756;37.412;2022-09-09T11:16:58;4.40;;;1.47;;
69034;SDS011;56091;55.756;37.412;2022-09-09T11:22:02;4.82;;;1.60;;
69034;SDS011;56091;55.756;37.412;2022-09-09T11:27:24;4.03;;;1.50;;
69034;SDS011;56091;55.756;37.412;2022-09-09T11:43:44;4.15;;;1.50;;
69034;SDS011;56091;55.756;37.412;2022-09-09T11:48:59;3.80;;;1.50;;
69034;SDS011;56091;55.756;37.412;2022-09-09T11:59:31;5.17;;;1.40;;
69034;SDS011;56091;55.756;37.412;2022-09-09T12:04:35;4.30;;;1.50;;
69034;SDS011;56091;55.756;37.412;2022-09-09T12:30:37;3.27;;;1.40;;
69034;SDS011;56091;55.756;37.412;2022-09-09T12:36:04;3.88;;;1.50;;
69034;SDS011;56091;55.756;37.412;2022-09-09T12:41:22;4.07;;;1.60;;
69034;SDS011;56091;55.756;37.412;2022-09-09T12:46:43;4.22;;;1.60;;
69034;SDS011;56091;55.756;37.412;2022-09-09T12:51:46;4.87;;;1.40;;
69034;SDS011;56091;55.756;37.412;2022-09-09T12:56:47;4.55;;;1.50;;
69034;SDS011;56091;55.756;37.412;2022-09-09T13:01:58;4.17;;;1.23;;
69034;SDS011;56091;55.756;37.412;2022-09-09T13:07:06;4.88;;;1.40;;
69034;SDS011;56091;55.756;37.412;2022-09-09T13:12:18;3.00;;;1.20;;
69034;SDS011;56091;55.756;37.412;2022-09-09T13:17:22;4.05;;;1.38;;
69034;SDS011;56091;55.756;37.412;2022-09-09T13:27:39;4.53;;;1.50;;
69034;SDS011;56091;55.756;37.412;2022-09-09T13:32:42;4.63;;;1.70;;
69034;SDS011;56091;55.756;37.412;2022-09-09T13:37:43;4.88;;;1.50;;
69034;SDS011;56091;55.756;37.412;2022-09-09T13:42:44;3.63;;;1.37;;
69034;SDS011;56091;55.756;37.412;2022-09-09T13:47:45;5.18;;;1.52;;
69034;SDS011;56091;55.756;37.412;2022-09-09T13:52:51;6.77;;;1.80;;
69034;SDS011;56091;55.756;37.412;2022-09-09T13:57:57;7.80;;;2.03;;
69034;SDS011;56091;55.756;37.412;2022-09-09T14:03:01;7.73;;;2.00;;
69034;SDS011;56091;55.756;37.412;2022-09-09T14:08:06;6.70;;;2.20;;
69034;SDS011;56091;55.756;37.412;2022-09-09T14:13:07;7.67;;;2.37;;
69034;SDS011;56091;55.756;37.412;2022-09-09T14:18:11;8.77;;;3.10;;
69034;SDS011;56091;55.756;37.412;2022-09-09T14:23:13;8.87;;;3.63;;
69034;SDS011;56091;55.756;37.412;2022-09-09T14:28:14;9.60;;;6.60;;
69034;SDS011;56091;55.756;37.412;2022-09-09T14:33:16;10.30;;;7.00;;
69034;SDS011;56091;55.756;37.412;2022-09-09T14:38:17;6.50;;;3.10;;
69034;SDS011;56091;55.756;37.412;2022-09-09T14:43:18;7.40;;;4.93;;
69034;SDS011;56091;55.756;37.412;2022-09-09T14:48:20;10.30;;;5.88;;
69034;SDS011;56091;55.756;37.412;2022-09-09T14:53:21;7.47;;;4.60;;
69034;SDS011;56091;55.756;37.412;2022-09-09T14:58:22;6.43;;;3.50;;
69034;SDS011;56091;55.756;37.412;2022-09-09T15:03:22;9.50;;;4.60;;
69034;SDS011;56091;55.756;37.412;2022-09-09T15:08:24;7.32;;;4.20;;
69034;SDS011;56091;55.756;37.412;2022-09-09T15:13:26;6.23;;;2.00;;
69034;SDS011;56091;55.756;37.412;2022-09-09T15:18:27;6.45;;;3.15;;
69034;SDS011;56091;55.756;37.412;2022-09-09T15:23:30;6.67;;;2.60;;
69034;SDS011;56091;55.756;37.412;2022-09-09T15:28:33;9.15;;;2.15;;
69034;SDS011;56091;55.756;37.412;2022-09-09T15:33:38;5.60;;;1.70;;
69034;SDS011;56091;55.756;37.412;2022-09-09T15:38:39;7.75;;;1.95;;
69034;SDS011;56091;55.756;37.412;2022-09-09T15:43:43;7.27;;;1.80;;
69034;SDS011;56091;55.756;37.412;2022-09-09T15:48:45;6.05;;;1.90;;
69034;SDS011;56091;55.756;37.412;2022-09-09T15:53:47;5.63;;;2.20;;
69034;SDS011;56091;55.756;37.412;2022-09-09T15:58:49;7.75;;;2.35;;
69034;SDS011;56091;55.756;37.412;2022-09-09T16:03:50;6.33;;;2.30;;
69034;SDS011;56091;55.756;37.412;2022-09-09T16:08:52;6.00;;;2.10;;
69034;SDS011;56091;55.756;37.412;2022-09-09T16:13:54;5.40;;;2.00;;
69034;SDS011;56091;55.756;37.412;2022-09-09T16:19:00;5.90;;;1.80;;
69034;SDS011;56091;55.756;37.412;2022-09-09T16:24:05;10.70;;;2.50;;
69034;SDS011;56091;55.756;37.412;2022-09-09T16:29:06;10.70;;;3.10;;
69034;SDS011;56091;55.756;37.412;2022-09-09T16:34:07;9.07;;;3.67;;
69034;SDS011;56091;55.756;37.412;2022-09-09T16:39:11;8.93;;;2.53;;
69034;SDS011;56091;55.756;37.412;2022-09-09T16:44:14;10.05;;;2.88;;
69034;SDS011;56091;55.756;37.412;2022-09-09T16:49:17;8.87;;;2.87;;
69034;SDS011;56091;55.756;37.412;2022-09-09T16:54:18;10.55;;;3.65;;
69034;SDS011;56091;55.756;37.412;2022-09-09T16:59:20;9.30;;;3.60;;
69034;SDS011;56091;55.756;37.412;2022-09-09T17:04:25;11.55;;;3.38;;
69034;SDS011;56091;55.756;37.412;2022-09-09T17:09:28;9.13;;;2.83;;
69034;SDS011;56091;55.756;37.412;2022-09-09T17:14:29;12.98;;;3.08;;
69034;SDS011;56091;55.756;37.412;2022-09-09T17:19:31;10.90;;;3.40;;
69034;SDS011;56091;55.756;37.412;2022-09-09T17:24:32;11.95;;;4.10;;
69034;SDS011;56091;55.756;37.412;2022-09-09T17:29:34;10.20;;;3.47;;
69034;SDS011;56091;55.756;37.412;2022-09-09T17:34:36;9.10;;;3.15;;
69034;SDS011;56091;55.756;37.412;2022-09-09T17:39:38;10.87;;;3.73;;
69034;SDS011;56091;55.756;37.412;2022-09-09T17:44:38;13.02;;;3.22;;
69034;SDS011;56091;55.756;37.412;2022-09-09T17:49:40;9.50;;;3.30;;
69034;SDS011;56091;55.756;37.412;2022-09-09T17:54:41;11.27;;;3.67;;
69034;SDS011;56091;55.756;37.412;2022-09-09T17:59:41;11.80;;;3.13;;
69034;SDS011;56091;55.756;37.412;2022-09-09T18:04:42;10.93;;;3.45;;
69034;SDS011;56091;55.756;37.412;2022-09-09T18:09:43;8.10;;;3.13;;
69034;SDS011;56091;55.756;37.412;2022-09-09T18:14:44;8.97;;;3.37;;
69034;SDS011;56091;55.756;37.412;2022-09-09T18:19:49;10.83;;;3.87;;
69034;SDS011;56091;55.756;37.412;2022-09-09T18:24:51;16.90;;;4.32;;
69034;SDS011;56091;55.756;37.412;2022-09-09T18:29:52;17.80;;;5.43;;
69034;SDS011;56091;55.756;37.412;2022-09-09T18:34:56;15.53;;;4.63;;
69034;SDS011;56091;55.756;37.412;2022-09-09T18:39:58;12.23;;;4.72;;
69034;SDS011;56091;55.756;37.412;2022-09-09T18:44:59;21.33;;;5.47;;
69034;SDS011;56091;55.756;37.412;2022-09-09T18:50:00;13.70;;;5.53;;
69034;SDS011;56091;55.756;37.412;2022-09-09T18:55:02;11.80;;;5.20;;
69034;SDS011;56091;55.756;37.412;2022-09-09T19:00:04;13.32;;;5.30;;
69034;SDS011;56091;55.756;37.412;2022-09-09T19:05:06;15.13;;;5.07;;
69034;SDS011;56091;55.756;37.412;2022-09-09T19:10:07;12.90;;;4.82;;
69034;SDS011;56091;55.756;37.412;2022-09-09T19:15:08;10.97;;;4.70;;
69034;SDS011;56091;55.756;37.412;2022-09-09T19:20:09;19.75;;;4.45;;
69034;SDS011;56091;55.756;37.412;2022-09-09T19:25:10;8.73;;;3.60;;
69034;SDS011;56091;55.756;37.412;2022-09-09T19:30:11;12.88;;;3.65;;
69034;SDS011;56091;55.756;37.412;2022-09-09T19:35:12;10.20;;;3.90;;
69034;SDS011;56091;55.756;37.412;2022-09-09T19:40:16;10.80;;;4.00;;
69034;SDS011;56091;55.756;37.412;2022-09-09T19:45:20;8.13;;;3.40;;
69034;SDS011;56091;55.756;37.412;2022-09-09T19:50:21;10.30;;;3.70;;
69034;SDS011;56091;55.756;37.412;2022-09-09T19:55:22;9.02;;;3.33;;
69034;SDS011;56091;55.756;37.412;2022-09-09T20:00:24;11.47;;;4.23;;
69034;SDS011;56091;55.756;37.412;2022-09-09T20:05:25;11.05;;;3.22;;
69034;SDS011;56091;55.756;37.412;2022-09-09T20:10:26;15.00;;;4.20;;
69034;SDS011;56091;55.756;37.412;2022-09-09T20:15:28;12.60;;;4.97;;
69034;SDS011;56091;55.756;37.412;2022-09-09T20:20:29;16.13;;;5.30;;
69034;SDS011;56091;55.756;37.412;2022-09-09T20:25:34;11.88;;;4.43;;
69034;SDS011;56091;55.756;37.412;2022-09-09T20:30:35;12.80;;;5.13;;
69034;SDS011;56091;55.756;37.412;2022-09-09T20:35:37;12.68;;;4.57;;
69034;SDS011;56091;55.756;37.412;2022-09-09T20:40:38;10.40;;;4.70;;
69034;SDS011;56091;55.756;37.412;2022-09-09T20:45:40;14.00;;;5.53;;
69034;SDS011;56091;55.756;37.412;2022-09-09T20:50:45;17.00;;;4.70;;
69034;SDS011;56091;55.756;37.412;2022-09-09T20:55:52;12.18;;;4.75;;
69034;SDS011;56091;55.756;37.412;2022-09-09T21:00:58;10.73;;;4.80;;
69034;SDS011;56091;55.756;37.412;2022-09-09T21:06:00;11.18;;;5.10;;
69034;SDS011;56091;55.756;37.412;2022-09-09T21:11:01;10.33;;;5.20;;
69034;SDS011;56091;55.756;37.412;2022-09-09T21:16:02;12.65;;;5.50;;
69034;SDS011;56091;55.756;37.412;2022-09-09T21:21:05;15.23;;;5.70;;
69034;SDS011;56091;55.756;37.412;2022-09-09T21:26:07;14.48;;;6.10;;
69034;SDS011;56091;55.756;37.412;2022-09-09T21:31:13;15.87;;;6.30;;
69034;SDS011;56091;55.756;37.412;2022-09-09T21:36:17;14.20;;;6.25;;
69034;SDS011;56091;55.756;37.412;2022-09-09T21:41:18;11.53;;;5.67;;
69034;SDS011;56091;55.756;37.412;2022-09-09T21:46:22;8.10;;;3.70;;
69034;SDS011;56091;55.756;37.412;2022-09-09T21:51:25;11.33;;;5.20;;
69034;SDS011;56091;55.756;37.412;2022-09-09T21:56:26;11.17;;;4.50;;
69034;SDS011;56091;55.756;37.412;2022-09-09T22:01:32;9.65;;;4.40;;
69034;SDS011;56091;55.756;37.412;2022-09-09T22:06:34;16.40;;;4.90;;
69034;SDS011;56091;55.756;37.412;2022-09-09T22:11:36;13.07;;;5.18;;
69034;SDS011;56091;55.756;37.412;2022-09-09T22:16:37;11.30;;;4.40;;
69034;SDS011;56091;55.756;37.412;2022-09-09T22:21:38;8.20;;;3.60;;
69034;SDS011;56091;55.756;37.412;2022-09-09T22:26:38;9.20;;;4.50;;
69034;SDS011;56091;55.756;37.412;2022-09-09T22:31:39;8.95;;;3.40;;
69034;SDS011;56091;55.756;37.412;2022-09-09T22:36:40;10.13;;;4.70;;
69034;SDS011;56091;55.756;37.412;2022-09-09T22:41:41;17.15;;;6.03;;
69034;SDS011;56091;55.756;37.412;2022-09-09T22:46:42;17.03;;;5.90;;
69034;SDS011;56091;55.756;37.412;2022-09-09T22:51:43;15.13;;;6.00;;
69034;SDS011;56091;55.756;37.412;2022-09-09T22:56:47;11.82;;;6.32;;
69034;SDS011;56091;55.756;37.412;2022-09-09T23:01:51;11.73;;;5.80;;
69034;SDS011;56091;55.756;37.412;2022-09-09T23:06:51;12.40;;;5.47;;
69034;SDS011;56091;55.756;37.412;2022-09-09T23:11:55;11.07;;;4.80;;
69034;SDS011;56091;55.756;37.412;2022-09-09T23:16:58;10.52;;;5.55;;
69034;SDS011;56091;55.756;37.412;2022-09-09T23:21:59;12.80;;;6.80;;
69034;SDS011;56091;55.756;37.412;2022-09-09T23:27:00;11.77;;;5.32;;
69034;SDS011;56091;55.756;37.412;2022-09-09T23:32:02;11.53;;;5.57;;
69034;SDS011;56091;55.756;37.412;2022-09-09T23:37:05;10.98;;;5.80;;
69034;SDS011;56091;55.756;37.412;2022-09-09T23:42:11;13.20;;;7.00;;
69034;SDS011;56091;55.756;37.412;2022-09-09T23:47:13;11.32;;;5.80;;
69034;SDS011;56091;55.756;37.412;2022-09-09T23:52:14;13.47;;;5.90;;
69034;SDS011;56091;55.756;37.412;2022-09-09T23:57:17;16.75;;;7.60;;
